sensor_id;sensor_type;location;lat;lon;timestamp;temperature;humidity
1602;DHT22;794;48.592;9.634;2023-03-04T00:00:19;0.90;1.00
1602;DHT22;794;48.592;9.634;2023-03-04T00:02:46;-0.40;1.00
1602;DHT22;794;48.592;9.634;2023-03-04T00:05:13;0.90;1.00
1602;DHT22;794;48.592;9.634;2023-03-04T00:07:41;0.50;1.00
1602;DHT22;794;48.592;9.634;2023-03-04T00:10:09;1.10;1.00
1602;DHT22;794;48.592;9.634;2023-03-04T00:12:37;-0.80;1.00
1602;DHT22;794;48.592;9.634;2023-03-04T00:15:04;1.30;1.00
1602;DHT22;794;48.592;9.634;2023-03-04T00:17:31;-1.10;1.00
1602;DHT22;794;48.592;9.634;2023-03-04T00:19:58;1.10;1.00
1602;DHT22;794;48.592;9.634;2023-03-04T00:22:25;1.20;1.00
1602;DHT22;794;48.592;9.634;2023-03-04T00:24:53;-0.90;1.00
1602;DHT22;794;48.592;9.634;2023-03-04T00:27:20;1.00;1.00
1602;DHT22;794;48.592;9.634;2023-03-04T00:29:47;1.10;1.00
1602;DHT22;794;48.592;9.634;2023-03-04T00:32:14;-0.90;1.00
1602;DHT22;794;48.592;9.634;2023-03-04T00:34:42;1.10;1.00
1602;DHT22;794;48.592;9.634;2023-03-04T00:37:09;0.80;1.00
1602;DHT22;794;48.592;9.634;2023-03-04T00:39:36;0.50;1.00
1602;DHT22;794;48.592;9.634;2023-03-04T00:42:05;0.80;1.00
1602;DHT22;794;48.592;9.634;2023-03-04T00:44:32;-1.00;1.00
1602;DHT22;794;48.592;9.634;2023-03-04T00:46:59;1.00;1.00
1602;DHT22;794;48.592;9.634;2023-03-04T00:49:26;1.10;1.00
1602;DHT22;794;48.592;9.634;2023-03-04T00:51:53;1.20;1.00
1602;DHT22;794;48.592;9.634;2023-03-04T00:54:20;1.20;1.00
1602;DHT22;794;48.592;9.634;2023-03-04T00:56:47;1.20;1.00
1602;DHT22;794;48.592;9.634;2023-03-04T00:59:15;0.70;1.00
1602;DHT22;794;48.592;9.634;2023-03-04T01:01:42;1.20;1.00
1602;DHT22;794;48.592;9.634;2023-03-04T01:04:09;-0.70;1.00
1602;DHT22;794;48.592;9.634;2023-03-04T01:06:36;1.20;1.00
1602;DHT22;794;48.592;9.634;2023-03-04T01:09:03;-1.10;1.00
1602;DHT22;794;48.592;9.634;2023-03-04T01:11:30;-0.40;1.00
1602;DHT22;794;48.592;9.634;2023-03-04T01:13:57;-0.60;1.00
1602;DHT22;794;48.592;9.634;2023-03-04T01:16:25;1.50;1.00
1602;DHT22;794;48.592;9.634;2023-03-04T01:18:52;-1.10;1.00
1602;DHT22;794;48.592;9.634;2023-03-04T01:21:19;-1.10;1.00
1602;DHT22;794;48.592;9.634;2023-03-04T01:23:46;0.30;1.00
1602;DHT22;794;48.592;9.634;2023-03-04T01:26:13;0.30;1.00
1602;DHT22;794;48.592;9.634;2023-03-04T01:28:40;-1.20;1.00
1602;DHT22;794;48.592;9.634;2023-03-04T01:31:07;-1.40;1.00
1602;DHT22;794;48.592;9.634;2023-03-04T01:33:35;0.90;1.00
1602;DHT22;794;48.592;9.634;2023-03-04T01:36:03;-1.30;1.00
1602;DHT22;794;48.592;9.634;2023-03-04T01:38:30;-1.10;1.00
1602;DHT22;794;48.592;9.634;2023-03-04T01:40:57;-0.30;1.00
1602;DHT22;794;48.592;9.634;2023-03-04T01:43:25;0.60;1.00
1602;DHT22;794;48.592;9.634;2023-03-04T01:45:54;0.20;1.00
1602;DHT22;794;48.592;9.634;2023-03-04T01:48:24;1.00;1.00
1602;DHT22;794;48.592;9.634;2023-03-04T01:50:53;-0.90;1.00
1602;DHT22;794;48.592;9.634;2023-03-04T01:53:22;-1.50;1.00
1602;DHT22;794;48.592;9.634;2023-03-04T01:55:52;-1.30;1.00
1602;DHT22;794;48.592;9.634;2023-03-04T01:58:20;-1.00;1.00
1602;DHT22;794;48.592;9.634;2023-03-04T02:00:47;0.20;1.00
1602;DHT22;794;48.592;9.634;2023-03-04T02:03:16;0.00;1.00
1602;DHT22;794;48.592;9.634;2023-03-04T02:05:48;1.20;1.00
1602;DHT22;794;48.592;9.634;2023-03-04T02:08:21;0.90;1.00
1602;DHT22;794;48.592;9.634;2023-03-04T02:10:49;-1.40;1.00
1602;DHT22;794;48.592;9.634;2023-03-04T02:13:17;-1.40;1.00
1602;DHT22;794;48.592;9.634;2023-03-04T02:15:45;-1.10;1.00
1602;DHT22;794;48.592;9.634;2023-03-04T02:18:15;0.90;1.00
1602;DHT22;794;48.592;9.634;2023-03-04T02:20:49;0.40;1.00
1602;DHT22;794;48.592;9.634;2023-03-04T02:23:23;0.10;1.00
1602;DHT22;794;48.592;9.634;2023-03-04T02:26:10;-1.10;1.00
1602;DHT22;794;48.592;9.634;2023-03-04T02:28:38;-1.50;1.00
1602;DHT22;794;48.592;9.634;2023-03-04T02:31:05;0.80;1.00
1602;DHT22;794;48.592;9.634;2023-03-04T02:33:32;-1.30;1.00
1602;DHT22;794;48.592;9.634;2023-03-04T02:35:59;0.20;1.00
1602;DHT22;794;48.592;9.634;2023-03-04T02:38:26;-1.40;1.00
1602;DHT22;794;48.592;9.634;2023-03-04T02:40:55;-1.50;1.00
1602;DHT22;794;48.592;9.634;2023-03-04T02:43:24;-1.30;1.00
1602;DHT22;794;48.592;9.634;2023-03-04T02:45:51;-1.00;1.00
1602;DHT22;794;48.592;9.634;2023-03-04T02:48:20;0.80;1.00
1602;DHT22;794;48.592;9.634;2023-03-04T02:50:50;0.10;1.00
1602;DHT22;794;48.592;9.634;2023-03-04T02:53:18;-1.10;1.00
1602;DHT22;794;48.592;9.634;2023-03-04T02:55:45;0.20;1.00
1602;DHT22;794;48.592;9.634;2023-03-04T02:58:13;-1.40;1.00
1602;DHT22;794;48.592;9.634;2023-03-04T03:00:41;-1.10;1.00
1602;DHT22;794;48.592;9.634;2023-03-04T03:03:08;-0.90;1.00
1602;DHT22;794;48.592;9.634;2023-03-04T03:05:36;-1.10;1.00
1602;DHT22;794;48.592;9.634;2023-03-04T03:08:04;-1.30;1.00
1602;DHT22;794;48.592;9.634;2023-03-04T03:10:32;-1.40;1.00
1602;DHT22;794;48.592;9.634;2023-03-04T03:12:59;-1.60;1.00
1602;DHT22;794;48.592;9.634;2023-03-04T03:15:26;-0.10;1.00
1602;DHT22;794;48.592;9.634;2023-03-04T05:43:45;-2.10;1.00
1602;DHT22;794;48.592;9.634;2023-03-04T05:46:13;-1.20;1.00
1602;DHT22;794;48.592;9.634;2023-03-04T05:48:41;-2.50;1.00
1602;DHT22;794;48.592;9.634;2023-03-04T05:51:09;-0.50;1.00
1602;DHT22;794;48.592;9.634;2023-03-04T05:53:36;-2.70;1.00
1602;DHT22;794;48.592;9.634;2023-03-04T05:56:07;-2.40;1.00
1602;DHT22;794;48.592;9.634;2023-03-04T05:58:34;-2.40;1.00
1602;DHT22;794;48.592;9.634;2023-03-04T06:01:03;-0.60;1.00
1602;DHT22;794;48.592;9.634;2023-03-04T06:03:30;-2.30;1.00
1602;DHT22;794;48.592;9.634;2023-03-04T06:05:57;-2.10;1.00
1602;DHT22;794;48.592;9.634;2023-03-04T06:08:24;-2.30;1.00
1602;DHT22;794;48.592;9.634;2023-03-04T06:10:53;-2.10;1.00
1602;DHT22;794;48.592;9.634;2023-03-04T06:13:21;-2.00;1.00
1602;DHT22;794;48.592;9.634;2023-03-04T06:15:53;-2.30;1.00
1602;DHT22;794;48.592;9.634;2023-03-04T06:18:21;-0.30;1.00
1602;DHT22;794;48.592;9.634;2023-03-04T06:20:49;0.10;1.00
1602;DHT22;794;48.592;9.634;2023-03-04T06:23:16;-2.60;1.00
1602;DHT22;794;48.592;9.634;2023-03-04T06:25:43;-0.30;1.00
1602;DHT22;794;48.592;9.634;2023-03-04T06:28:10;-2.10;1.00
1602;DHT22;794;48.592;9.634;2023-03-04T06:30:37;-0.10;1.00
1602;DHT22;794;48.592;9.634;2023-03-04T06:33:04;-2.20;1.00
1602;DHT22;794;48.592;9.634;2023-03-04T06:35:32;-0.30;1.00
1602;DHT22;794;48.592;9.634;2023-03-04T06:37:59;-2.10;1.00
1602;DHT22;794;48.592;9.634;2023-03-04T06:40:26;-1.80;1.00
1602;DHT22;794;48.592;9.634;2023-03-04T06:42:53;-1.50;1.00
1602;DHT22;794;48.592;9.634;2023-03-04T06:45:20;0.80;1.00
1602;DHT22;794;48.592;9.634;2023-03-04T06:47:47;-1.30;1.00
1602;DHT22;794;48.592;9.634;2023-03-04T06:50:14;0.50;1.00
1602;DHT22;794;48.592;9.634;2023-03-04T06:52:42;1.20;1.00
1602;DHT22;794;48.592;9.634;2023-03-04T06:55:09;0.10;1.00
1602;DHT22;794;48.592;9.634;2023-03-04T06:57:37;-0.90;1.00
1602;DHT22;794;48.592;9.634;2023-03-04T07:00:06;1.10;1.00
1602;DHT22;794;48.592;9.634;2023-03-04T07:02:33;-0.20;1.00
1602;DHT22;794;48.592;9.634;2023-03-04T07:05:00;1.30;1.00
1602;DHT22;794;48.592;9.634;2023-03-04T07:07:27;0.10;1.00
1602;DHT22;794;48.592;9.634;2023-03-04T07:09:55;0.20;1.00
1602;DHT22;794;48.592;9.634;2023-03-04T07:12:22;2.00;1.00
1602;DHT22;794;48.592;9.634;2023-03-04T07:14:49;0.50;1.00
1602;DHT22;794;48.592;9.634;2023-03-04T07:17:16;2.40;1.00
1602;DHT22;794;48.592;9.634;2023-03-04T07:19:43;3.20;1.00
1602;DHT22;794;48.592;9.634;2023-03-04T07:22:10;1.30;1.00
1602;DHT22;794;48.592;9.634;2023-03-04T07:24:37;2.40;1.00
1602;DHT22;794;48.592;9.634;2023-03-04T07:27:05;1.10;1.00
1602;DHT22;794;48.592;9.634;2023-03-04T07:29:32;1.40;1.00
1602;DHT22;794;48.592;9.634;2023-03-04T07:31:59;1.90;1.00
1602;DHT22;794;48.592;9.634;2023-03-04T07:34:26;2.20;1.00
1602;DHT22;794;48.592;9.634;2023-03-04T07:36:53;1.50;1.00
1602;DHT22;794;48.592;9.634;2023-03-04T07:39:20;3.00;1.00
1602;DHT22;794;48.592;9.634;2023-03-04T07:41:47;1.40;1.00
1602;DHT22;794;48.592;9.634;2023-03-04T07:44:15;3.10;1.00
1602;DHT22;794;48.592;9.634;2023-03-04T07:46:42;0.30;1.00
1602;DHT22;794;48.592;9.634;2023-03-04T07:49:11;3.50;1.00
1602;DHT22;794;48.592;9.634;2023-03-04T07:51:38;1.90;1.00
1602;DHT22;794;48.592;9.634;2023-03-04T07:54:05;2.00;1.00
1602;DHT22;794;48.592;9.634;2023-03-04T07:56:33;1.90;1.00
1602;DHT22;794;48.592;9.634;2023-03-04T07:59:01;2.50;1.00
1602;DHT22;794;48.592;9.634;2023-03-04T08:01:30;3.20;1.00
1602;DHT22;794;48.592;9.634;2023-03-04T08:03:58;1.80;1.00
1602;DHT22;794;48.592;9.634;2023-03-04T08:06:26;2.60;1.00
1602;DHT22;794;48.592;9.634;2023-03-04T08:08:56;1.80;1.00
1602;DHT22;794;48.592;9.634;2023-03-04T08:11:23;1.90;1.00
1602;DHT22;794;48.592;9.634;2023-03-04T08:13:51;1.90;1.00
1602;DHT22;794;48.592;9.634;2023-03-04T08:16:20;2.10;1.00
1602;DHT22;794;48.592;9.634;2023-03-04T08:18:49;3.00;1.00
1602;DHT22;794;48.592;9.634;2023-03-04T08:21:19;2.50;1.00
1602;DHT22;794;48.592;9.634;2023-03-04T08:23:47;2.70;1.00
1602;DHT22;794;48.592;9.634;2023-03-04T08:26:17;2.00;1.00
1602;DHT22;794;48.592;9.634;2023-03-04T08:28:45;4.10;1.00
1602;DHT22;794;48.592;9.634;2023-03-04T08:31:12;2.20;1.00
1602;DHT22;794;48.592;9.634;2023-03-04T08:33:39;2.20;1.00
1602;DHT22;794;48.592;9.634;2023-03-04T08:36:08;3.00;1.00
1602;DHT22;794;48.592;9.634;2023-03-04T08:38:35;1.90;1.00
1602;DHT22;794;48.592;9.634;2023-03-04T08:41:02;2.10;1.00
1602;DHT22;794;48.592;9.634;2023-03-04T08:43:30;1.90;1.00
1602;DHT22;794;48.592;9.634;2023-03-04T08:45:57;3.00;1.00
1602;DHT22;794;48.592;9.634;2023-03-04T08:48:25;4.20;1.00
1602;DHT22;794;48.592;9.634;2023-03-04T08:50:52;2.70;1.00
1602;DHT22;794;48.592;9.634;2023-03-04T08:53:20;2.10;1.00
1602;DHT22;794;48.592;9.634;2023-03-04T08:55:48;2.90;1.00
1602;DHT22;794;48.592;9.634;2023-03-04T08:58:16;1.90;1.00
1602;DHT22;794;48.592;9.634;2023-03-04T09:00:45;1.70;1.00
1602;DHT22;794;48.592;9.634;2023-03-04T09:03:14;2.70;1.00
1602;DHT22;794;48.592;9.634;2023-03-04T09:05:44;1.80;1.00
1602;DHT22;794;48.592;9.634;2023-03-04T09:08:11;2.70;1.00
1602;DHT22;794;48.592;9.634;2023-03-04T09:10:43;2.10;1.00
1602;DHT22;794;48.592;9.634;2023-03-04T09:13:14;3.90;1.00
1602;DHT22;794;48.592;9.634;2023-03-04T09:15:43;2.10;1.00
1602;DHT22;794;48.592;9.634;2023-03-04T09:18:14;2.20;1.00
1602;DHT22;794;48.592;9.634;2023-03-04T09:20:42;2.30;1.00
1602;DHT22;794;48.592;9.634;2023-03-04T09:23:09;2.00;1.00
1602;DHT22;794;48.592;9.634;2023-03-04T09:25:37;3.60;1.00
1602;DHT22;794;48.592;9.634;2023-03-04T09:28:06;2.10;1.00
1602;DHT22;794;48.592;9.634;2023-03-04T09:30:33;4.20;1.00
1602;DHT22;794;48.592;9.634;2023-03-04T09:33:01;2.20;1.00
1602;DHT22;794;48.592;9.634;2023-03-04T09:35:28;1.80;1.00
1602;DHT22;794;48.592;9.634;2023-03-04T09:37:55;3.10;1.00
1602;DHT22;794;48.592;9.634;2023-03-04T09:40:25;2.20;1.00
1602;DHT22;794;48.592;9.634;2023-03-04T09:42:55;1.90;1.00
1602;DHT22;794;48.592;9.634;2023-03-04T09:45:31;2.30;1.00
1602;DHT22;794;48.592;9.634;2023-03-04T09:48:00;1.80;1.00
1602;DHT22;794;48.592;9.634;2023-03-04T09:50:29;3.00;1.00
1602;DHT22;794;48.592;9.634;2023-03-04T09:53:06;1.70;1.00
1602;DHT22;794;48.592;9.634;2023-03-04T09:55:37;2.60;1.00
1602;DHT22;794;48.592;9.634;2023-03-04T09:58:13;3.30;1.00
1602;DHT22;794;48.592;9.634;2023-03-04T10:00:45;1.90;1.00
1602;DHT22;794;48.592;9.634;2023-03-04T10:03:16;2.30;1.00
1602;DHT22;794;48.592;9.634;2023-03-04T10:05:50;3.30;1.00
1602;DHT22;794;48.592;9.634;2023-03-04T10:08:35;2.10;1.00
1602;DHT22;794;48.592;9.634;2023-03-04T10:11:09;2.20;1.00
1602;DHT22;794;48.592;9.634;2023-03-04T10:13:42;3.00;1.00
1602;DHT22;794;48.592;9.634;2023-03-04T10:16:15;1.80;1.00
1602;DHT22;794;48.592;9.634;2023-03-04T10:18:47;2.90;1.00
1602;DHT22;794;48.592;9.634;2023-03-04T10:21:21;3.70;1.00
1602;DHT22;794;48.592;9.634;2023-03-04T10:23:49;1.80;1.00
1602;DHT22;794;48.592;9.634;2023-03-04T10:26:19;0.80;1.00
1602;DHT22;794;48.592;9.634;2023-03-04T10:28:48;3.60;1.00
1602;DHT22;794;48.592;9.634;2023-03-04T10:31:20;1.50;1.00
1602;DHT22;794;48.592;9.634;2023-03-04T10:33:48;3.00;1.00
1602;DHT22;794;48.592;9.634;2023-03-04T10:36:33;1.70;1.00
1602;DHT22;794;48.592;9.634;2023-03-04T10:39:05;1.80;1.00
1602;DHT22;794;48.592;9.634;2023-03-04T10:41:33;2.20;1.00
1602;DHT22;794;48.592;9.634;2023-03-04T10:44:02;3.00;1.00
1602;DHT22;794;48.592;9.634;2023-03-04T10:46:31;1.70;1.00
1602;DHT22;794;48.592;9.634;2023-03-04T10:48:58;1.70;1.00
1602;DHT22;794;48.592;9.634;2023-03-04T10:51:27;0.70;1.00
1602;DHT22;794;48.592;9.634;2023-03-04T10:53:59;1.50;1.00
1602;DHT22;794;48.592;9.634;2023-03-04T10:56:31;3.80;1.00
1602;DHT22;794;48.592;9.634;2023-03-04T11:02:20;1.10;1.00
1602;DHT22;794;48.592;9.634;2023-03-04T11:04:53;1.80;1.00
1602;DHT22;794;48.592;9.634;2023-03-04T11:07:22;1.90;1.00
1602;DHT22;794;48.592;9.634;2023-03-04T11:09:50;1.50;1.00
1602;DHT22;794;48.592;9.634;2023-03-04T11:12:20;1.70;1.00
1602;DHT22;794;48.592;9.634;2023-03-04T11:14:48;3.50;1.00
1602;DHT22;794;48.592;9.634;2023-03-04T11:17:23;2.10;1.00
1602;DHT22;794;48.592;9.634;2023-03-04T11:19:55;1.50;1.00
1602;DHT22;794;48.592;9.634;2023-03-04T11:22:23;1.60;1.00
1602;DHT22;794;48.592;9.634;2023-03-04T11:24:56;1.90;1.00
1602;DHT22;794;48.592;9.634;2023-03-04T11:27:39;1.80;1.00
1602;DHT22;794;48.592;9.634;2023-03-04T11:30:25;1.70;1.00
1602;DHT22;794;48.592;9.634;2023-03-04T11:33:10;3.10;1.00
1602;DHT22;794;48.592;9.634;2023-03-04T11:35:43;3.00;1.00
1602;DHT22;794;48.592;9.634;2023-03-04T11:38:17;1.90;1.00
1602;DHT22;794;48.592;9.634;2023-03-04T11:40:49;2.10;1.00
1602;DHT22;794;48.592;9.634;2023-03-04T11:43:21;2.60;1.00
1602;DHT22;794;48.592;9.634;2023-03-04T11:46:06;2.30;1.00
1602;DHT22;794;48.592;9.634;2023-03-04T11:48:51;3.70;1.00
1602;DHT22;794;48.592;9.634;2023-03-04T11:51:23;1.80;1.00
1602;DHT22;794;48.592;9.634;2023-03-04T11:54:07;3.80;1.00
1602;DHT22;794;48.592;9.634;2023-03-04T11:56:42;1.50;1.00
1602;DHT22;794;48.592;9.634;2023-03-04T11:59:35;2.20;1.00
1602;DHT22;794;48.592;9.634;2023-03-04T12:02:16;2.00;1.00
1602;DHT22;794;48.592;9.634;2023-03-04T12:05:13;1.90;1.00
1602;DHT22;794;48.592;9.634;2023-03-04T12:10:47;2.10;1.00
1602;DHT22;794;48.592;9.634;2023-03-04T12:13:28;2.20;1.00
1602;DHT22;794;48.592;9.634;2023-03-04T12:16:09;2.10;1.00
1602;DHT22;794;48.592;9.634;2023-03-04T12:18:53;2.00;1.00
1602;DHT22;794;48.592;9.634;2023-03-04T12:21:40;2.10;1.00
1602;DHT22;794;48.592;9.634;2023-03-04T12:24:30;2.50;1.00
1602;DHT22;794;48.592;9.634;2023-03-04T12:27:10;4.30;1.00
1602;DHT22;794;48.592;9.634;2023-03-04T12:29:44;4.80;1.00
1602;DHT22;794;48.592;9.634;2023-03-04T12:32:19;3.90;1.00
1602;DHT22;794;48.592;9.634;2023-03-04T12:35:03;4.00;1.00
1602;DHT22;794;48.592;9.634;2023-03-04T12:37:52;3.00;1.00
1602;DHT22;794;48.592;9.634;2023-03-04T12:40:31;2.60;1.00
1602;DHT22;794;48.592;9.634;2023-03-04T12:43:10;3.00;1.00
1602;DHT22;794;48.592;9.634;2023-03-04T12:45:46;3.40;1.00
1602;DHT22;794;48.592;9.634;2023-03-04T12:48:24;2.90;1.00
1602;DHT22;794;48.592;9.634;2023-03-04T12:51:02;4.20;1.00
1602;DHT22;794;48.592;9.634;2023-03-04T12:53:40;3.00;1.00
1602;DHT22;794;48.592;9.634;2023-03-04T12:56:21;3.10;1.00
1602;DHT22;794;48.592;9.634;2023-03-04T12:58:49;3.30;1.00
1602;DHT22;794;48.592;9.634;2023-03-04T13:01:22;3.00;1.00
1602;DHT22;794;48.592;9.634;2023-03-04T13:03:55;3.60;1.00
1602;DHT22;794;48.592;9.634;2023-03-04T13:06:30;3.40;1.00
1602;DHT22;794;48.592;9.634;2023-03-04T13:09:06;4.40;1.00
1602;DHT22;794;48.592;9.634;2023-03-04T13:12:14;3.90;1.00
1602;DHT22;794;48.592;9.634;2023-03-04T13:15:16;4.20;1.00
1602;DHT22;794;48.592;9.634;2023-03-04T13:17:45;3.10;1.00
1602;DHT22;794;48.592;9.634;2023-03-04T13:20:31;3.80;1.00
1602;DHT22;794;48.592;9.634;2023-03-04T13:22:59;2.80;1.00
1602;DHT22;794;48.592;9.634;2023-03-04T13:25:37;4.60;1.00
1602;DHT22;794;48.592;9.634;2023-03-04T13:28:14;3.50;1.00
1602;DHT22;794;48.592;9.634;2023-03-04T13:34:00;3.10;1.00
1602;DHT22;794;48.592;9.634;2023-03-04T13:39:34;3.40;1.00
1602;DHT22;794;48.592;9.634;2023-03-04T13:42:03;3.30;1.00
1602;DHT22;794;48.592;9.634;2023-03-04T13:44:58;3.80;1.00
1602;DHT22;794;48.592;9.634;2023-03-04T13:47:55;3.30;1.00
1602;DHT22;794;48.592;9.634;2023-03-04T13:50:39;4.00;1.00
1602;DHT22;794;48.592;9.634;2023-03-04T13:53:37;3.50;1.00
1602;DHT22;794;48.592;9.634;2023-03-04T13:56:17;3.80;1.00
1602;DHT22;794;48.592;9.634;2023-03-04T13:58:48;3.40;1.00
1602;DHT22;794;48.592;9.634;2023-03-04T14:01:26;3.70;1.00
1602;DHT22;794;48.592;9.634;2023-03-04T14:03:55;3.60;1.00
1602;DHT22;794;48.592;9.634;2023-03-04T14:06:23;3.50;1.00
1602;DHT22;794;48.592;9.634;2023-03-04T14:08:51;4.90;1.00
1602;DHT22;794;48.592;9.634;2023-03-04T14:11:25;4.20;1.00
1602;DHT22;794;48.592;9.634;2023-03-04T14:13:53;3.50;1.00
1602;DHT22;794;48.592;9.634;2023-03-04T14:16:25;4.00;1.00
1602;DHT22;794;48.592;9.634;2023-03-04T14:18:57;3.90;1.00
1602;DHT22;794;48.592;9.634;2023-03-04T14:21:24;3.90;1.00
1602;DHT22;794;48.592;9.634;2023-03-04T14:24:00;3.60;1.00
1602;DHT22;794;48.592;9.634;2023-03-04T14:26:28;3.80;1.00
1602;DHT22;794;48.592;9.634;2023-03-04T14:28:56;3.80;1.00
1602;DHT22;794;48.592;9.634;2023-03-04T14:31:27;4.10;1.00
1602;DHT22;794;48.592;9.634;2023-03-04T14:33:56;3.90;1.00
1602;DHT22;794;48.592;9.634;2023-03-04T14:36:28;4.00;1.00
1602;DHT22;794;48.592;9.634;2023-03-04T14:38:57;3.80;1.00
1602;DHT22;794;48.592;9.634;2023-03-04T14:41:27;4.00;1.00
1602;DHT22;794;48.592;9.634;2023-03-04T14:44:07;3.40;1.00
1602;DHT22;794;48.592;9.634;2023-03-04T14:46:42;3.70;1.00
1602;DHT22;794;48.592;9.634;2023-03-04T14:49:12;3.50;1.00
1602;DHT22;794;48.592;9.634;2023-03-04T14:51:43;4.50;1.00
1602;DHT22;794;48.592;9.634;2023-03-04T14:54:27;3.50;1.00
1602;DHT22;794;48.592;9.634;2023-03-04T14:56:54;3.30;1.00
1602;DHT22;794;48.592;9.634;2023-03-04T14:59:29;3.50;1.00
1602;DHT22;794;48.592;9.634;2023-03-04T15:02:19;3.50;1.00
1602;DHT22;794;48.592;9.634;2023-03-04T15:04:49;3.20;1.00
1602;DHT22;794;48.592;9.634;2023-03-04T15:07:21;3.00;1.00
1602;DHT22;794;48.592;9.634;2023-03-04T15:09:50;3.20;1.00
1602;DHT22;794;48.592;9.634;2023-03-04T15:42:35;2.80;1.00
1602;DHT22;794;48.592;9.634;2023-03-04T15:45:11;2.90;1.00
1602;DHT22;794;48.592;9.634;2023-03-04T15:47:45;2.80;1.00
1602;DHT22;794;48.592;9.634;2023-03-04T15:50:12;2.30;1.00
1602;DHT22;794;48.592;9.634;2023-03-04T15:52:40;2.50;1.00
1602;DHT22;794;48.592;9.634;2023-03-04T15:55:12;2.50;1.00
1602;DHT22;794;48.592;9.634;2023-03-04T15:57:42;2.70;1.00
1602;DHT22;794;48.592;9.634;2023-03-04T16:00:10;2.30;1.00
1602;DHT22;794;48.592;9.634;2023-03-04T16:02:38;2.50;1.00
1602;DHT22;794;48.592;9.634;2023-03-04T16:05:06;2.50;1.00
1602;DHT22;794;48.592;9.634;2023-03-04T16:07:34;2.30;1.00
1602;DHT22;794;48.592;9.634;2023-03-04T16:10:05;2.30;1.00
1602;DHT22;794;48.592;9.634;2023-03-04T16:12:34;2.20;1.00
1602;DHT22;794;48.592;9.634;2023-03-04T16:15:10;2.60;1.00
1602;DHT22;794;48.592;9.634;2023-03-04T16:17:38;2.50;1.00
1602;DHT22;794;48.592;9.634;2023-03-04T16:20:10;3.90;1.00
1602;DHT22;794;48.592;9.634;2023-03-04T16:22:37;2.20;1.00
1602;DHT22;794;48.592;9.634;2023-03-04T16:25:05;2.30;1.00
1602;DHT22;794;48.592;9.634;2023-03-04T16:27:32;2.20;1.00
1602;DHT22;794;48.592;9.634;2023-03-04T16:29:59;1.90;1.00
1602;DHT22;794;48.592;9.634;2023-03-04T16:32:27;4.00;1.00
1602;DHT22;794;48.592;9.634;2023-03-04T16:34:54;2.30;1.00
1602;DHT22;794;48.592;9.634;2023-03-04T16:37:21;3.10;1.00
1602;DHT22;794;48.592;9.634;2023-03-04T16:39:48;2.30;1.00
1602;DHT22;794;48.592;9.634;2023-03-04T16:42:17;2.70;1.00
1602;DHT22;794;48.592;9.634;2023-03-04T16:44:47;2.10;1.00
1602;DHT22;794;48.592;9.634;2023-03-04T16:47:14;2.70;1.00
1602;DHT22;794;48.592;9.634;2023-03-04T16:49:42;4.00;1.00
1602;DHT22;794;48.592;9.634;2023-03-04T16:52:18;2.10;1.00
1602;DHT22;794;48.592;9.634;2023-03-04T16:54:46;3.40;1.00
1602;DHT22;794;48.592;9.634;2023-03-04T16:57:13;3.70;1.00
1602;DHT22;794;48.592;9.634;2023-03-04T16:59:40;1.70;1.00
1602;DHT22;794;48.592;9.634;2023-03-04T17:02:12;1.70;1.00
1602;DHT22;794;48.592;9.634;2023-03-04T17:04:39;2.10;1.00
1602;DHT22;794;48.592;9.634;2023-03-04T17:07:08;3.60;1.00
1602;DHT22;794;48.592;9.634;2023-03-04T17:09:35;1.80;1.00
1602;DHT22;794;48.592;9.634;2023-03-04T17:12:03;0.30;1.00
1602;DHT22;794;48.592;9.634;2023-03-04T17:14:30;1.90;1.00
1602;DHT22;794;48.592;9.634;2023-03-04T17:16:57;2.10;1.00
1602;DHT22;794;48.592;9.634;2023-03-04T17:19:24;2.10;1.00
1602;DHT22;794;48.592;9.634;2023-03-04T17:21:51;1.60;1.00
1602;DHT22;794;48.592;9.634;2023-03-04T17:24:20;2.60;1.00
1602;DHT22;794;48.592;9.634;2023-03-04T17:26:47;1.60;1.00
1602;DHT22;794;48.592;9.634;2023-03-04T17:29:14;1.60;1.00
1602;DHT22;794;48.592;9.634;2023-03-04T17:31:41;1.90;1.00
1602;DHT22;794;48.592;9.634;2023-03-04T17:34:08;3.10;1.00
1602;DHT22;794;48.592;9.634;2023-03-04T17:36:35;1.80;1.00
1602;DHT22;794;48.592;9.634;2023-03-04T17:39:03;2.50;1.00
1602;DHT22;794;48.592;9.634;2023-03-04T17:41:31;2.20;1.00
1602;DHT22;794;48.592;9.634;2023-03-04T17:43:58;3.00;1.00
1602;DHT22;794;48.592;9.634;2023-03-04T17:46:28;3.60;1.00
1602;DHT22;794;48.592;9.634;2023-03-04T17:48:57;1.60;1.00
1602;DHT22;794;48.592;9.634;2023-03-04T17:51:29;2.10;1.00
1602;DHT22;794;48.592;9.634;2023-03-04T17:53:57;3.00;1.00
1602;DHT22;794;48.592;9.634;2023-03-04T17:56:26;1.50;1.00
1602;DHT22;794;48.592;9.634;2023-03-04T17:58:57;2.20;1.00
1602;DHT22;794;48.592;9.634;2023-03-04T18:01:24;3.00;1.00
1602;DHT22;794;48.592;9.634;2023-03-04T18:03:52;2.30;1.00
1602;DHT22;794;48.592;9.634;2023-03-04T18:06:19;3.60;1.00
1602;DHT22;794;48.592;9.634;2023-03-04T18:08:48;1.80;1.00
1602;DHT22;794;48.592;9.634;2023-03-04T18:11:15;2.70;1.00
1602;DHT22;794;48.592;9.634;2023-03-04T18:13:43;2.50;1.00
1602;DHT22;794;48.592;9.634;2023-03-04T18:16:13;1.90;1.00
1602;DHT22;794;48.592;9.634;2023-03-04T18:18:41;3.50;1.00
1602;DHT22;794;48.592;9.634;2023-03-04T18:21:08;-0.20;1.00
1602;DHT22;794;48.592;9.634;2023-03-04T18:23:36;3.30;1.00
1602;DHT22;794;48.592;9.634;2023-03-04T18:26:03;1.70;1.00
1602;DHT22;794;48.592;9.634;2023-03-04T18:28:30;1.50;1.00
1602;DHT22;794;48.592;9.634;2023-03-04T18:30:57;1.40;1.00
1602;DHT22;794;48.592;9.634;2023-03-04T18:33:27;2.60;1.00
1602;DHT22;794;48.592;9.634;2023-03-04T18:35:58;3.70;1.00
1602;DHT22;794;48.592;9.634;2023-03-04T18:38:26;3.80;1.00
1602;DHT22;794;48.592;9.634;2023-03-04T18:40:57;1.60;1.00
1602;DHT22;794;48.592;9.634;2023-03-04T18:43:24;2.00;1.00
1602;DHT22;794;48.592;9.634;2023-03-04T18:46:03;3.20;1.00
1602;DHT22;794;48.592;9.634;2023-03-04T18:48:34;2.00;1.00
1602;DHT22;794;48.592;9.634;2023-03-04T18:51:03;3.70;1.00
1602;DHT22;794;48.592;9.634;2023-03-04T18:53:30;1.90;1.00
1602;DHT22;794;48.592;9.634;2023-03-04T18:56:01;1.80;1.00
1602;DHT22;794;48.592;9.634;2023-03-04T18:58:33;1.80;1.00
1602;DHT22;794;48.592;9.634;2023-03-04T19:01:03;1.50;1.00
1602;DHT22;794;48.592;9.634;2023-03-04T19:03:33;1.30;1.00
1602;DHT22;794;48.592;9.634;2023-03-04T19:06:01;3.60;1.00
1602;DHT22;794;48.592;9.634;2023-03-04T19:08:29;2.00;1.00
1602;DHT22;794;48.592;9.634;2023-03-04T19:10:56;1.60;1.00
1602;DHT22;794;48.592;9.634;2023-03-04T19:13:23;-0.20;1.00
1602;DHT22;794;48.592;9.634;2023-03-04T19:15:52;1.70;1.00
1602;DHT22;794;48.592;9.634;2023-03-04T19:18:19;1.70;1.00
1602;DHT22;794;48.592;9.634;2023-03-04T19:20:47;3.60;1.00
1602;DHT22;794;48.592;9.634;2023-03-04T19:23:15;1.80;1.00
1602;DHT22;794;48.592;9.634;2023-03-04T19:25:43;1.90;1.00
1602;DHT22;794;48.592;9.634;2023-03-04T19:28:10;2.00;1.00
1602;DHT22;794;48.592;9.634;2023-03-04T19:30:38;1.90;1.00
1602;DHT22;794;48.592;9.634;2023-03-04T19:33:05;3.10;1.00
1602;DHT22;794;48.592;9.634;2023-03-04T19:35:32;1.90;1.00
1602;DHT22;794;48.592;9.634;2023-03-04T19:38:03;1.90;1.00
1602;DHT22;794;48.592;9.634;2023-03-04T19:40:30;3.60;1.00
1602;DHT22;794;48.592;9.634;2023-03-04T19:42:58;2.30;1.00
1602;DHT22;794;48.592;9.634;2023-03-04T19:45:25;3.80;1.00
1602;DHT22;794;48.592;9.634;2023-03-04T19:47:52;2.30;1.00
1602;DHT22;794;48.592;9.634;2023-03-04T19:50:21;2.00;1.00
1602;DHT22;794;48.592;9.634;2023-03-04T19:52:48;1.70;1.00
1602;DHT22;794;48.592;9.634;2023-03-04T19:55:17;2.30;1.00
1602;DHT22;794;48.592;9.634;2023-03-04T19:57:44;1.70;1.00
1602;DHT22;794;48.592;9.634;2023-03-04T20:00:12;2.10;1.00
1602;DHT22;794;48.592;9.634;2023-03-04T20:02:39;2.00;1.00
1602;DHT22;794;48.592;9.634;2023-03-04T20:05:08;2.20;1.00
1602;DHT22;794;48.592;9.634;2023-03-04T20:07:35;2.30;1.00
1602;DHT22;794;48.592;9.634;2023-03-04T20:10:02;2.00;1.00
1602;DHT22;794;48.592;9.634;2023-03-04T20:12:30;2.40;1.00
1602;DHT22;794;48.592;9.634;2023-03-04T20:14:58;2.00;1.00
1602;DHT22;794;48.592;9.634;2023-03-04T20:17:25;2.20;1.00